sensor_id;sensor_type;location;lat;lon;timestamp;P1;durP1;ratioP1;P2;durP2;ratioP2
20036;SDS011;10179;42.640;23.312;2022-07-23T00:00:49;9.45;;;3.95;;
20036;SDS011;10179;42.640;23.312;2022-07-23T00:03:14;11.07;;;4.28;;
20036;SDS011;10179;42.640;23.312;2022-07-23T00:05:40;6.97;;;4.18;;
20036;SDS011;10179;42.640;23.312;2022-07-23T00:08:05;7.82;;;3.10;;
20036;SDS011;10179;42.640;23.312;2022-07-23T00:10:32;10.50;;;4.32;;
20036;SDS011;10179;42.640;23.312;2022-07-23T00:12:58;9.25;;;4.15;;
20036;SDS011;10179;42.640;23.312;2022-07-23T00:15:23;12.40;;;4.32;;
20036;SDS011;10179;42.640;23.312;2022-07-23T00:17:49;7.13;;;3.20;;
20036;SDS011;10179;42.640;23.312;2022-07-23T00:20:15;11.93;;;4.70;;
20036;SDS011;10179;42.640;23.312;2022-07-23T00:22:50;8.05;;;4.28;;
20036;SDS011;10179;42.640;23.312;2022-07-23T00:25:17;12.50;;;4.05;;
20036;SDS011;10179;42.640;23.312;2022-07-23T00:27:43;8.00;;;4.25;;
20036;SDS011;10179;42.640;23.312;2022-07-23T00:30:09;10.68;;;4.50;;
20036;SDS011;10179;42.640;23.312;2022-07-23T00:32:54;8.85;;;4.68;;
20036;SDS011;10179;42.640;23.312;2022-07-23T00:35:22;7.35;;;4.55;;
20036;SDS011;10179;42.640;23.312;2022-07-23T00:37:51;9.32;;;5.00;;
20036;SDS011;10179;42.640;23.312;2022-07-23T00:40:17;9.77;;;4.68;;
20036;SDS011;10179;42.640;23.312;2022-07-23T00:42:42;7.15;;;4.30;;
20036;SDS011;10179;42.640;23.312;2022-07-23T00:45:08;9.45;;;4.40;;
20036;SDS011;10179;42.640;23.312;2022-07-23T00:47:34;8.50;;;4.40;;
20036;SDS011;10179;42.640;23.312;2022-07-23T00:50:01;9.70;;;4.25;;
20036;SDS011;10179;42.640;23.312;2022-07-23T00:52:28;10.32;;;4.50;;
20036;SDS011;10179;42.640;23.312;2022-07-23T00:54:54;7.55;;;4.65;;
20036;SDS011;10179;42.640;23.312;2022-07-23T00:57:20;9.07;;;4.25;;
20036;SDS011;10179;42.640;23.312;2022-07-23T00:59:46;9.32;;;4.55;;
20036;SDS011;10179;42.640;23.312;2022-07-23T01:02:11;8.07;;;4.47;;
20036;SDS011;10179;42.640;23.312;2022-07-23T01:04:37;16.02;;;4.95;;
20036;SDS011;10179;42.640;23.312;2022-07-23T01:07:03;8.48;;;4.28;;
20036;SDS011;10179;42.640;23.312;2022-07-23T01:09:29;7.25;;;4.50;;
20036;SDS011;10179;42.640;23.312;2022-07-23T01:11:56;6.43;;;4.65;;
20036;SDS011;10179;42.640;23.312;2022-07-23T01:14:22;14.02;;;5.32;;
20036;SDS011;10179;42.640;23.312;2022-07-23T01:16:48;9.25;;;4.80;;
20036;SDS011;10179;42.640;23.312;2022-07-23T01:19:14;8.68;;;5.18;;
20036;SDS011;10179;42.640;23.312;2022-07-23T01:21:42;8.90;;;5.03;;
20036;SDS011;10179;42.640;23.312;2022-07-23T01:24:09;7.85;;;4.70;;
20036;SDS011;10179;42.640;23.312;2022-07-23T01:26:36;8.20;;;4.75;;
20036;SDS011;10179;42.640;23.312;2022-07-23T01:29:03;11.07;;;5.70;;
20036;SDS011;10179;42.640;23.312;2022-07-23T01:31:29;11.57;;;4.72;;
20036;SDS011;10179;42.640;23.312;2022-07-23T01:33:55;10.00;;;4.88;;
20036;SDS011;10179;42.640;23.312;2022-07-23T01:36:21;7.53;;;4.45;;
20036;SDS011;10179;42.640;23.312;2022-07-23T01:38:46;9.85;;;5.50;;
20036;SDS011;10179;42.640;23.312;2022-07-23T01:41:12;7.88;;;4.70;;
20036;SDS011;10179;42.640;23.312;2022-07-23T01:43:37;9.10;;;5.28;;
20036;SDS011;10179;42.640;23.312;2022-07-23T01:46:03;8.23;;;5.03;;
20036;SDS011;10179;42.640;23.312;2022-07-23T01:48:28;7.82;;;4.93;;
20036;SDS011;10179;42.640;23.312;2022-07-23T01:50:54;9.63;;;5.47;;
20036;SDS011;10179;42.640;23.312;2022-07-23T01:53:19;10.63;;;5.32;;
20036;SDS011;10179;42.640;23.312;2022-07-23T01:55:45;9.18;;;5.30;;
20036;SDS011;10179;42.640;23.312;2022-07-23T01:58:10;12.10;;;5.40;;
20036;SDS011;10179;42.640;23.312;2022-07-23T02:00:35;9.48;;;4.90;;
20036;SDS011;10179;42.640;23.312;2022-07-23T02:03:01;9.07;;;5.30;;
20036;SDS011;10179;42.640;23.312;2022-07-23T02:05:26;8.80;;;4.80;;
20036;SDS011;10179;42.640;23.312;2022-07-23T02:07:54;9.93;;;4.78;;
20036;SDS011;10179;42.640;23.312;2022-07-23T02:10:20;12.00;;;4.90;;
20036;SDS011;10179;42.640;23.312;2022-07-23T02:12:46;9.40;;;4.82;;
20036;SDS011;10179;42.640;23.312;2022-07-23T02:15:11;11.00;;;4.95;;
20036;SDS011;10179;42.640;23.312;2022-07-23T02:17:36;8.50;;;5.25;;
20036;SDS011;10179;42.640;23.312;2022-07-23T02:20:03;8.18;;;4.97;;
20036;SDS011;10179;42.640;23.312;2022-07-23T02:22:29;12.63;;;5.60;;
20036;SDS011;10179;42.640;23.312;2022-07-23T02:24:55;8.05;;;4.80;;
20036;SDS011;10179;42.640;23.312;2022-07-23T02:27:20;12.50;;;5.57;;
20036;SDS011;10179;42.640;23.312;2022-07-23T02:29:46;10.25;;;5.07;;
20036;SDS011;10179;42.640;23.312;2022-07-23T02:32:12;10.10;;;5.13;;
20036;SDS011;10179;42.640;23.312;2022-07-23T02:34:37;8.93;;;5.28;;
20036;SDS011;10179;42.640;23.312;2022-07-23T02:37:02;8.02;;;4.72;;
20036;SDS011;10179;42.640;23.312;2022-07-23T02:39:28;8.57;;;5.65;;
20036;SDS011;10179;42.640;23.312;2022-07-23T02:41:53;9.07;;;4.80;;
20036;SDS011;10179;42.640;23.312;2022-07-23T02:44:19;8.27;;;4.18;;
20036;SDS011;10179;42.640;23.312;2022-07-23T02:46:44;7.68;;;4.30;;
20036;SDS011;10179;42.640;23.312;2022-07-23T02:49:11;10.45;;;4.70;;
20036;SDS011;10179;42.640;23.312;2022-07-23T02:51:36;9.25;;;4.75;;
20036;SDS011;10179;42.640;23.312;2022-07-23T02:54:02;6.90;;;4.47;;
20036;SDS011;10179;42.640;23.312;2022-07-23T02:56:27;6.65;;;4.20;;
20036;SDS011;10179;42.640;23.312;2022-07-23T02:58:53;10.35;;;5.35;;
20036;SDS011;10179;42.640;23.312;2022-07-23T03:01:18;9.40;;;4.53;;
20036;SDS011;10179;42.640;23.312;2022-07-23T03:03:43;12.32;;;4.40;;
20036;SDS011;10179;42.640;23.312;2022-07-23T03:06:09;10.07;;;4.68;;
20036;SDS011;10179;42.640;23.312;2022-07-23T03:08:34;7.63;;;4.72;;
20036;SDS011;10179;42.640;23.312;2022-07-23T03:11:00;11.30;;;5.10;;
20036;SDS011;10179;42.640;23.312;2022-07-23T03:13:25;8.98;;;4.72;;
20036;SDS011;10179;42.640;23.312;2022-07-23T03:15:50;10.35;;;5.03;;
20036;SDS011;10179;42.640;23.312;2022-07-23T03:18:16;10.70;;;4.85;;
20036;SDS011;10179;42.640;23.312;2022-07-23T03:20:41;11.70;;;4.93;;
20036;SDS011;10179;42.640;23.312;2022-07-23T03:23:07;15.20;;;5.18;;
20036;SDS011;10179;42.640;23.312;2022-07-23T03:25:32;11.13;;;5.18;;
20036;SDS011;10179;42.640;23.312;2022-07-23T03:27:58;8.75;;;4.70;;
20036;SDS011;10179;42.640;23.312;2022-07-23T03:30:23;9.27;;;5.20;;
20036;SDS011;10179;42.640;23.312;2022-07-23T03:32:48;12.48;;;6.03;;
20036;SDS011;10179;42.640;23.312;2022-07-23T03:35:14;9.80;;;5.40;;
20036;SDS011;10179;42.640;23.312;2022-07-23T03:37:39;13.15;;;6.15;;
20036;SDS011;10179;42.640;23.312;2022-07-23T03:40:05;13.98;;;5.68;;
20036;SDS011;10179;42.640;23.312;2022-07-23T03:42:31;12.70;;;6.18;;
20036;SDS011;10179;42.640;23.312;2022-07-23T03:44:57;8.93;;;5.47;;
20036;SDS011;10179;42.640;23.312;2022-07-23T03:47:22;9.82;;;5.75;;
20036;SDS011;10179;42.640;23.312;2022-07-23T03:49:48;10.68;;;5.97;;
20036;SDS011;10179;42.640;23.312;2022-07-23T03:52:13;10.60;;;6.55;;
20036;SDS011;10179;42.640;23.312;2022-07-23T03:54:39;11.05;;;6.15;;
20036;SDS011;10179;42.640;23.312;2022-07-23T03:57:05;10.90;;;6.10;;
20036;SDS011;10179;42.640;23.312;2022-07-23T03:59:30;13.63;;;6.35;;
20036;SDS011;10179;42.640;23.312;2022-07-23T04:01:56;10.23;;;6.00;;
20036;SDS011;10179;42.640;23.312;2022-07-23T04:04:21;12.38;;;6.25;;
20036;SDS011;10179;42.640;23.312;2022-07-23T04:06:47;12.57;;;6.05;;
20036;SDS011;10179;42.640;23.312;2022-07-23T04:09:12;12.52;;;5.72;;
20036;SDS011;10179;42.640;23.312;2022-07-23T04:11:38;12.43;;;6.30;;
20036;SDS011;10179;42.640;23.312;2022-07-23T04:14:03;10.70;;;5.97;;
20036;SDS011;10179;42.640;23.312;2022-07-23T04:16:29;9.93;;;6.45;;
20036;SDS011;10179;42.640;23.312;2022-07-23T04:18:56;12.48;;;7.03;;
20036;SDS011;10179;42.640;23.312;2022-07-23T04:21:22;11.00;;;6.05;;
20036;SDS011;10179;42.640;23.312;2022-07-23T04:23:48;9.73;;;6.45;;
20036;SDS011;10179;42.640;23.312;2022-07-23T04:26:13;12.65;;;7.55;;
20036;SDS011;10179;42.640;23.312;2022-07-23T04:28:39;13.27;;;6.57;;
20036;SDS011;10179;42.640;23.312;2022-07-23T04:31:04;11.15;;;6.30;;
20036;SDS011;10179;42.640;23.312;2022-07-23T04:33:30;10.75;;;6.65;;
20036;SDS011;10179;42.640;23.312;2022-07-23T04:35:55;12.00;;;7.00;;
20036;SDS011;10179;42.640;23.312;2022-07-23T04:38:20;12.90;;;6.55;;
20036;SDS011;10179;42.640;23.312;2022-07-23T04:40:46;13.00;;;7.25;;
20036;SDS011;10179;42.640;23.312;2022-07-23T04:43:11;12.55;;;7.43;;
20036;SDS011;10179;42.640;23.312;2022-07-23T04:45:37;13.18;;;7.00;;
20036;SDS011;10179;42.640;23.312;2022-07-23T04:48:02;14.00;;;7.30;;
20036;SDS011;10179;42.640;23.312;2022-07-23T04:50:28;19.60;;;6.88;;
20036;SDS011;10179;42.640;23.312;2022-07-23T04:52:53;17.65;;;7.50;;
20036;SDS011;10179;42.640;23.312;2022-07-23T04:55:19;11.32;;;6.60;;
20036;SDS011;10179;42.640;23.312;2022-07-23T04:57:44;17.80;;;7.22;;
20036;SDS011;10179;42.640;23.312;2022-07-23T05:00:10;21.08;;;7.53;;
20036;SDS011;10179;42.640;23.312;2022-07-23T05:02:36;11.73;;;6.18;;
20036;SDS011;10179;42.640;23.312;2022-07-23T05:05:01;11.43;;;6.72;;
20036;SDS011;10179;42.640;23.312;2022-07-23T05:07:26;14.05;;;7.20;;
20036;SDS011;10179;42.640;23.312;2022-07-23T05:09:52;13.55;;;7.60;;
20036;SDS011;10179;42.640;23.312;2022-07-23T05:12:17;17.58;;;7.22;;
20036;SDS011;10179;42.640;23.312;2022-07-23T05:14:42;18.90;;;7.38;;
20036;SDS011;10179;42.640;23.312;2022-07-23T05:17:08;16.25;;;7.10;;
20036;SDS011;10179;42.640;23.312;2022-07-23T05:19:34;12.18;;;7.18;;
20036;SDS011;10179;42.640;23.312;2022-07-23T05:22:00;15.07;;;7.47;;
20036;SDS011;10179;42.640;23.312;2022-07-23T05:24:25;21.98;;;8.63;;
20036;SDS011;10179;42.640;23.312;2022-07-23T05:26:51;18.83;;;7.65;;
20036;SDS011;10179;42.640;23.312;2022-07-23T05:29:16;20.35;;;7.15;;
20036;SDS011;10179;42.640;23.312;2022-07-23T05:31:42;15.95;;;6.93;;
20036;SDS011;10179;42.640;23.312;2022-07-23T05:34:07;16.23;;;7.60;;
20036;SDS011;10179;42.640;23.312;2022-07-23T05:36:33;18.67;;;6.75;;
20036;SDS011;10179;42.640;23.312;2022-07-23T05:38:58;17.05;;;6.95;;
20036;SDS011;10179;42.640;23.312;2022-07-23T05:41:24;17.42;;;7.30;;
20036;SDS011;10179;42.640;23.312;2022-07-23T05:43:49;15.45;;;6.60;;
20036;SDS011;10179;42.640;23.312;2022-07-23T05:46:15;15.13;;;6.40;;
20036;SDS011;10179;42.640;23.312;2022-07-23T05:48:40;16.00;;;6.22;;
20036;SDS011;10179;42.640;23.312;2022-07-23T05:51:07;13.68;;;7.20;;
20036;SDS011;10179;42.640;23.312;2022-07-23T05:53:33;13.55;;;6.20;;
20036;SDS011;10179;42.640;23.312;2022-07-23T05:55:59;13.90;;;6.35;;
20036;SDS011;10179;42.640;23.312;2022-07-23T05:58:25;15.38;;;6.43;;
20036;SDS011;10179;42.640;23.312;2022-07-23T06:00:50;9.80;;;5.90;;
20036;SDS011;10179;42.640;23.312;2022-07-23T06:03:16;12.57;;;6.40;;
20036;SDS011;10179;42.640;23.312;2022-07-23T06:05:41;11.85;;;6.60;;
20036;SDS011;10179;42.640;23.312;2022-07-23T06:08:07;13.05;;;5.90;;
20036;SDS011;10179;42.640;23.312;2022-07-23T06:10:32;12.60;;;5.80;;
20036;SDS011;10179;42.640;23.312;2022-07-23T06:12:58;11.30;;;6.22;;
20036;SDS011;10179;42.640;23.312;2022-07-23T06:15:23;10.52;;;6.40;;
20036;SDS011;10179;42.640;23.312;2022-07-23T06:17:48;15.05;;;7.20;;
20036;SDS011;10179;42.640;23.312;2022-07-23T06:20:14;10.93;;;5.90;;
20036;SDS011;10179;42.640;23.312;2022-07-23T06:22:40;9.98;;;6.10;;
20036;SDS011;10179;42.640;23.312;2022-07-23T06:25:05;13.13;;;5.68;;
20036;SDS011;10179;42.640;23.312;2022-07-23T06:27:31;8.57;;;5.63;;
20036;SDS011;10179;42.640;23.312;2022-07-23T06:29:57;21.75;;;6.05;;
20036;SDS011;10179;42.640;23.312;2022-07-23T06:32:22;11.18;;;6.25;;
20036;SDS011;10179;42.640;23.312;2022-07-23T06:34:48;14.93;;;6.03;;
20036;SDS011;10179;42.640;23.312;2022-07-23T06:37:13;11.27;;;5.68;;
20036;SDS011;10179;42.640;23.312;2022-07-23T06:39:39;12.00;;;5.80;;
20036;SDS011;10179;42.640;23.312;2022-07-23T06:42:04;11.77;;;5.70;;
20036;SDS011;10179;42.640;23.312;2022-07-23T06:44:30;10.85;;;6.13;;
20036;SDS011;10179;42.640;23.312;2022-07-23T06:46:55;10.60;;;6.10;;
20036;SDS011;10179;42.640;23.312;2022-07-23T06:49:20;8.90;;;5.47;;
20036;SDS011;10179;42.640;23.312;2022-07-23T06:51:46;14.27;;;6.47;;
20036;SDS011;10179;42.640;23.312;2022-07-23T06:54:11;10.98;;;5.90;;
20036;SDS011;10179;42.640;23.312;2022-07-23T06:56:37;15.35;;;6.40;;
20036;SDS011;10179;42.640;23.312;2022-07-23T06:59:02;10.25;;;5.63;;
20036;SDS011;10179;42.640;23.312;2022-07-23T07:01:28;11.82;;;5.40;;
20036;SDS011;10179;42.640;23.312;2022-07-23T07:03:53;10.70;;;5.97;;
20036;SDS011;10179;42.640;23.312;2022-07-23T07:06:19;9.40;;;5.40;;
20036;SDS011;10179;42.640;23.312;2022-07-23T07:08:44;10.55;;;5.40;;
20036;SDS011;10179;42.640;23.312;2022-07-23T07:11:10;10.68;;;5.88;;
20036;SDS011;10179;42.640;23.312;2022-07-23T07:13:36;15.45;;;6.55;;
20036;SDS011;10179;42.640;23.312;2022-07-23T07:16:02;12.85;;;6.40;;
20036;SDS011;10179;42.640;23.312;2022-07-23T07:18:28;18.00;;;6.93;;
20036;SDS011;10179;42.640;23.312;2022-07-23T07:20:54;9.98;;;6.25;;
20036;SDS011;10179;42.640;23.312;2022-07-23T07:23:19;8.05;;;5.30;;
20036;SDS011;10179;42.640;23.312;2022-07-23T07:25:45;11.73;;;6.22;;
20036;SDS011;10179;42.640;23.312;2022-07-23T07:28:11;12.65;;;7.55;;
20036;SDS011;10179;42.640;23.312;2022-07-23T07:30:37;13.27;;;6.00;;
20036;SDS011;10179;42.640;23.312;2022-07-23T07:33:02;12.10;;;6.47;;
20036;SDS011;10179;42.640;23.312;2022-07-23T07:35:28;11.02;;;6.10;;
20036;SDS011;10179;42.640;23.312;2022-07-23T07:37:53;12.23;;;6.28;;
20036;SDS011;10179;42.640;23.312;2022-07-23T07:40:19;14.02;;;5.82;;
20036;SDS011;10179;42.640;23.312;2022-07-23T07:42:49;13.73;;;6.30;;
20036;SDS011;10179;42.640;23.312;2022-07-23T07:45:16;10.48;;;5.82;;
20036;SDS011;10179;42.640;23.312;2022-07-23T07:47:41;10.35;;;6.10;;
20036;SDS011;10179;42.640;23.312;2022-07-23T07:50:07;10.95;;;6.10;;
20036;SDS011;10179;42.640;23.312;2022-07-23T07:52:34;11.65;;;6.35;;
20036;SDS011;10179;42.640;23.312;2022-07-23T07:55:01;15.00;;;5.93;;
20036;SDS011;10179;42.640;23.312;2022-07-23T07:57:31;11.18;;;5.97;;
20036;SDS011;10179;42.640;23.312;2022-07-23T07:59:56;11.30;;;5.82;;
20036;SDS011;10179;42.640;23.312;2022-07-23T08:02:22;11.60;;;6.13;;
20036;SDS011;10179;42.640;23.312;2022-07-23T08:04:47;16.73;;;6.55;;
20036;SDS011;10179;42.640;23.312;2022-07-23T08:07:14;16.52;;;6.45;;
20036;SDS011;10179;42.640;23.312;2022-07-23T08:09:39;13.05;;;6.22;;
20036;SDS011;10179;42.640;23.312;2022-07-23T08:12:05;15.13;;;6.50;;
20036;SDS011;10179;42.640;23.312;2022-07-23T08:14:30;11.23;;;6.45;;
20036;SDS011;10179;42.640;23.312;2022-07-23T08:16:56;12.77;;;6.28;;
20036;SDS011;10179;42.640;23.312;2022-07-23T08:19:21;10.98;;;6.28;;
20036;SDS011;10179;42.640;23.312;2022-07-23T08:21:47;8.73;;;6.13;;
20036;SDS011;10179;42.640;23.312;2022-07-23T08:24:12;17.55;;;6.70;;
20036;SDS011;10179;42.640;23.312;2022-07-23T08:26:38;17.98;;;6.85;;
20036;SDS011;10179;42.640;23.312;2022-07-23T08:29:03;13.45;;;6.13;;
20036;SDS011;10179;42.640;23.312;2022-07-23T08:31:28;14.80;;;6.97;;
20036;SDS011;10179;42.640;23.312;2022-07-23T08:33:54;11.13;;;6.13;;
20036;SDS011;10179;42.640;23.312;2022-07-23T08:36:20;17.63;;;6.90;;
20036;SDS011;10179;42.640;23.312;2022-07-23T08:38:45;16.63;;;6.50;;
20036;SDS011;10179;42.640;23.312;2022-07-23T08:41:11;15.25;;;6.20;;
20036;SDS011;10179;42.640;23.312;2022-07-23T08:43:36;13.35;;;6.93;;
20036;SDS011;10179;42.640;23.312;2022-07-23T08:46:02;15.00;;;6.90;;
20036;SDS011;10179;42.640;23.312;2022-07-23T08:48:32;18.42;;;5.93;;
20036;SDS011;10179;42.640;23.312;2022-07-23T08:50:59;13.70;;;6.45;;
20036;SDS011;10179;42.640;23.312;2022-07-23T08:53:29;8.80;;;5.90;;
20036;SDS011;10179;42.640;23.312;2022-07-23T08:55:56;11.18;;;5.75;;
20036;SDS011;10179;42.640;23.312;2022-07-23T08:58:24;11.35;;;6.55;;
20036;SDS011;10179;42.640;23.312;2022-07-23T09:00:50;11.38;;;6.90;;
20036;SDS011;10179;42.640;23.312;2022-07-23T09:03:17;8.32;;;6.25;;
20036;SDS011;10179;42.640;23.312;2022-07-23T09:05:46;13.85;;;6.90;;
20036;SDS011;10179;42.640;23.312;2022-07-23T09:10:52;16.17;;;6.40;;
20036;SDS011;10179;42.640;23.312;2022-07-23T09:13:30;8.68;;;5.72;;
20036;SDS011;10179;42.640;23.312;2022-07-23T09:15:57;12.10;;;6.07;;
20036;SDS011;10179;42.640;23.312;2022-07-23T09:21:21;19.00;;;6.60;;
20036;SDS011;10179;42.640;23.312;2022-07-23T09:24:01;15.13;;;6.03;;
20036;SDS011;10179;42.640;23.312;2022-07-23T09:31:57;14.20;;;6.47;;
20036;SDS011;10179;42.640;23.312;2022-07-23T09:34:28;10.80;;;6.05;;
20036;SDS011;10179;42.640;23.312;2022-07-23T09:37:13;14.70;;;6.13;;
20036;SDS011;10179;42.640;23.312;2022-07-23T09:39:40;12.20;;;5.68;;
20036;SDS011;10179;42.640;23.312;2022-07-23T09:42:20;11.50;;;6.20;;
20036;SDS011;10179;42.640;23.312;2022-07-23T09:44:50;10.48;;;4.88;;
20036;SDS011;10179;42.640;23.312;2022-07-23T09:47:17;10.63;;;5.30;;
20036;SDS011;10179;42.640;23.312;2022-07-23T09:52:35;12.68;;;5.03;;
20036;SDS011;10179;42.640;23.312;2022-07-23T09:55:07;11.05;;;4.78;;
20036;SDS011;10179;42.640;23.312;2022-07-23T09:57:33;9.25;;;4.53;;
20036;SDS011;10179;42.640;23.312;2022-07-23T10:00:03;8.23;;;4.50;;
20036;SDS011;10179;42.640;23.312;2022-07-23T10:02:32;9.45;;;4.50;;
20036;SDS011;10179;42.640;23.312;2022-07-23T10:04:58;10.80;;;4.47;;
20036;SDS011;10179;42.640;23.312;2022-07-23T10:07:26;12.45;;;4.80;;
20036;SDS011;10179;42.640;23.312;2022-07-23T10:09:55;7.72;;;4.22;;
20036;SDS011;10179;42.640;23.312;2022-07-23T10:12:20;8.95;;;4.75;;
20036;SDS011;10179;42.640;23.312;2022-07-23T10:14:58;9.35;;;4.35;;
20036;SDS011;10179;42.640;23.312;2022-07-23T10:17:23;14.70;;;4.75;;
20036;SDS011;10179;42.640;23.312;2022-07-23T10:19:49;13.43;;;4.80;;
20036;SDS011;10179;42.640;23.312;2022-07-23T10:22:19;8.60;;;4.75;;
20036;SDS011;10179;42.640;23.312;2022-07-23T10:39:04;7.57;;;4.38;;
20036;SDS011;10179;42.640;23.312;2022-07-23T10:46:34;7.93;;;4.70;;
20036;SDS011;10179;42.640;23.312;2022-07-23T10:49:32;7.70;;;4.00;;
20036;SDS011;10179;42.640;23.312;2022-07-23T10:54:49;13.35;;;5.38;;
20036;SDS011;10179;42.640;23.312;2022-07-23T10:57:17;14.55;;;4.68;;
20036;SDS011;10179;42.640;23.312;2022-07-23T11:02:43;13.75;;;4.68;;
20036;SDS011;10179;42.640;23.312;2022-07-23T11:05:12;10.48;;;5.18;;
20036;SDS011;10179;42.640;23.312;2022-07-23T11:10:35;9.38;;;4.30;;
20036;SDS011;10179;42.640;23.312;2022-07-23T11:34:42;11.73;;;4.45;;
20036;SDS011;10179;42.640;23.312;2022-07-23T11:37:12;14.65;;;4.40;;
20036;SDS011;10179;42.640;23.312;2022-07-23T11:39:54;10.35;;;4.97;;
20036;SDS011;10179;42.640;23.312;2022-07-23T11:42:21;15.73;;;4.80;;
20036;SDS011;10179;42.640;23.312;2022-07-23T11:44:47;11.63;;;4.13;;
20036;SDS011;10179;42.640;23.312;2022-07-23T11:47:13;14.23;;;4.43;;
20036;SDS011;10179;42.640;23.312;2022-07-23T11:49:38;11.82;;;4.57;;
20036;SDS011;10179;42.640;23.312;2022-07-23T11:52:17;16.10;;;4.80;;
20036;SDS011;10179;42.640;23.312;2022-07-23T11:54:57;13.85;;;5.22;;
20036;SDS011;10179;42.640;23.312;2022-07-23T11:57:34;13.00;;;4.90;;
20036;SDS011;10179;42.640;23.312;2022-07-23T12:00:04;12.35;;;4.50;;
20036;SDS011;10179;42.640;23.312;2022-07-23T12:02:30;15.02;;;4.30;;
20036;SDS011;10179;42.640;23.312;2022-07-23T12:04:55;11.88;;;3.78;;
20036;SDS011;10179;42.640;23.312;2022-07-23T12:10:14;11.15;;;3.70;;
20036;SDS011;10179;42.640;23.312;2022-07-23T12:12:42;12.30;;;3.88;;
20036;SDS011;10179;42.640;23.312;2022-07-23T12:15:15;9.57;;;4.00;;
20036;SDS011;10179;42.640;23.312;2022-07-23T12:17:43;17.42;;;4.65;;
20036;SDS011;10179;42.640;23.312;2022-07-23T12:20:12;16.35;;;4.10;;
20036;SDS011;10179;42.640;23.312;2022-07-23T12:22:47;10.73;;;4.57;;
20036;SDS011;10179;42.640;23.312;2022-07-23T12:25:15;9.52;;;4.20;;
20036;SDS011;10179;42.640;23.312;2022-07-23T12:27:43;9.57;;;4.50;;
20036;SDS011;10179;42.640;23.312;2022-07-23T12:30:19;16.58;;;4.28;;
20036;SDS011;10179;42.640;23.312;2022-07-23T12:32:53;10.23;;;4.40;;
20036;SDS011;10179;42.640;23.312;2022-07-23T12:35:21;9.90;;;4.00;;
20036;SDS011;10179;42.640;23.312;2022-07-23T12:37:48;11.73;;;4.68;;
20036;SDS011;10179;42.640;23.312;2022-07-23T12:40:27;12.07;;;3.78;;
20036;SDS011;10179;42.640;23.312;2022-07-23T12:45:26;12.85;;;3.80;;
20036;SDS011;10179;42.640;23.312;2022-07-23T12:47:54;10.40;;;3.25;;
20036;SDS011;10179;42.640;23.312;2022-07-23T12:53:16;9.23;;;4.13;;
20036;SDS011;10179;42.640;23.312;2022-07-23T12:55:44;11.48;;;3.83;;
20036;SDS011;10179;42.640;23.312;2022-07-23T12:58:12;11.35;;;4.20;;
20036;SDS011;10179;42.640;23.312;2022-07-23T13:00:58;14.73;;;3.92;;
20036;SDS011;10179;42.640;23.312;2022-07-23T13:03:39;11.75;;;3.72;;
20036;SDS011;10179;42.640;23.312;2022-07-23T13:06:06;14.52;;;4.10;;
20036;SDS011;10179;42.640;23.312;2022-07-23T13:08:33;12.75;;;4.18;;
20036;SDS011;10179;42.640;23.312;2022-07-23T13:11:01;10.15;;;3.60;;
20036;SDS011;10179;42.640;23.312;2022-07-23T13:13:28;13.10;;;3.75;;
20036;SDS011;10179;42.640;23.312;2022-07-23T13:15:55;11.07;;;3.95;;
20036;SDS011;10179;42.640;23.312;2022-07-23T13:18:21;15.10;;;3.88;;
20036;SDS011;10179;42.640;23.312;2022-07-23T13:20:48;10.85;;;3.80;;
20036;SDS011;10179;42.640;23.312;2022-07-23T13:23:14;12.55;;;3.63;;
20036;SDS011;10179;42.640;23.312;2022-07-23T13:25:41;9.30;;;3.40;;
20036;SDS011;10179;42.640;23.312;2022-07-23T13:28:07;12.15;;;3.90;;
20036;SDS011;10179;42.640;23.312;2022-07-23T13:30:32;11.38;;;3.85;;
20036;SDS011;10179;42.640;23.312;2022-07-23T13:32:58;10.27;;;4.25;;
20036;SDS011;10179;42.640;23.312;2022-07-23T13:35:24;15.35;;;3.80;;
20036;SDS011;10179;42.640;23.312;2022-07-23T13:37:49;20.23;;;3.85;;
20036;SDS011;10179;42.640;23.312;2022-07-23T13:40:15;11.88;;;3.60;;
20036;SDS011;10179;42.640;23.312;2022-07-23T13:42:41;11.40;;;3.78;;
20036;SDS011;10179;42.640;23.312;2022-07-23T13:45:06;14.75;;;3.65;;
20036;SDS011;10179;42.640;23.312;2022-07-23T13:47:33;11.60;;;3.97;;
20036;SDS011;10179;42.640;23.312;2022-07-23T13:49:58;11.45;;;3.60;;
20036;SDS011;10179;42.640;23.312;2022-07-23T13:52:24;7.07;;;3.53;;
20036;SDS011;10179;42.640;23.312;2022-07-23T13:54:50;19.95;;;4.00;;
20036;SDS011;10179;42.640;23.312;2022-07-23T13:57:15;14.38;;;3.53;;
20036;SDS011;10179;42.640;23.312;2022-07-23T13:59:41;14.25;;;3.70;;
20036;SDS011;10179;42.640;23.312;2022-07-23T14:02:06;10.88;;;3.60;;
20036;SDS011;10179;42.640;23.312;2022-07-23T14:04:32;13.23;;;3.65;;
20036;SDS011;10179;42.640;23.312;2022-07-23T14:06:57;15.82;;;4.47;;
20036;SDS011;10179;42.640;23.312;2022-07-23T14:09:23;9.07;;;3.70;;
20036;SDS011;10179;42.640;23.312;2022-07-23T14:11:48;14.77;;;3.75;;
20036;SDS011;10179;42.640;23.312;2022-07-23T14:14:15;14.00;;;4.07;;
20036;SDS011;10179;42.640;23.312;2022-07-23T14:16:42;9.82;;;4.00;;
20036;SDS011;10179;42.640;23.312;2022-07-23T14:19:07;13.00;;;3.65;;
20036;SDS011;10179;42.640;23.312;2022-07-23T14:21:33;16.38;;;4.20;;
20036;SDS011;10179;42.640;23.312;2022-07-23T14:23:58;11.02;;;3.60;;
20036;SDS011;10179;42.640;23.312;2022-07-23T14:26:23;8.95;;;3.40;;
20036;SDS011;10179;42.640;23.312;2022-07-23T14:28:49;9.43;;;4.53;;
20036;SDS011;10179;42.640;23.312;2022-07-23T14:31:14;10.52;;;3.83;;
20036;SDS011;10179;42.640;23.312;2022-07-23T14:33:40;9.52;;;4.07;;
20036;SDS011;10179;42.640;23.312;2022-07-23T14:36:05;11.15;;;3.88;;
20036;SDS011;10179;42.640;23.312;2022-07-23T14:38:30;8.15;;;3.97;;
20036;SDS011;10179;42.640;23.312;2022-07-23T14:40:57;12.63;;;3.83;;
20036;SDS011;10179;42.640;23.312;2022-07-23T14:43:22;11.00;;;3.88;;
20036;SDS011;10179;42.640;23.312;2022-07-23T14:45:48;16.20;;;5.30;;
20036;SDS011;10179;42.640;23.312;2022-07-23T14:48:13;13.35;;;5.88;;
20036;SDS011;10179;42.640;23.312;2022-07-23T14:50:39;10.95;;;4.28;;
20036;SDS011;10179;42.640;23.312;2022-07-23T14:53:04;9.05;;;3.65;;
20036;SDS011;10179;42.640;23.312;2022-07-23T14:55:30;12.63;;;3.85;;
20036;SDS011;10179;42.640;23.312;2022-07-23T14:57:57;13.82;;;4.53;;
20036;SDS011;10179;42.640;23.312;2022-07-23T15:00:23;9.27;;;3.83;;
20036;SDS011;10179;42.640;23.312;2022-07-23T15:02:48;10.20;;;3.80;;
20036;SDS011;10179;42.640;23.312;2022-07-23T15:05:13;11.07;;;4.00;;
20036;SDS011;10179;42.640;23.312;2022-07-23T15:07:39;11.95;;;4.00;;
20036;SDS011;10179;42.640;23.312;2022-07-23T15:10:05;13.55;;;4.40;;
20036;SDS011;10179;42.640;23.312;2022-07-23T15:12:31;12.52;;;4.15;;
20036;SDS011;10179;42.640;23.312;2022-07-23T15:14:56;8.70;;;4.68;;
20036;SDS011;10179;42.640;23.312;2022-07-23T15:17:21;10.85;;;4.10;;
20036;SDS011;10179;42.640;23.312;2022-07-23T15:19:47;8.88;;;4.10;;
20036;SDS011;10179;42.640;23.312;2022-07-23T15:22:12;11.25;;;3.72;;
20036;SDS011;10179;42.640;23.312;2022-07-23T15:24:38;8.88;;;4.32;;
20036;SDS011;10179;42.640;23.312;2022-07-23T15:27:04;9.55;;;3.88;;
20036;SDS011;10179;42.640;23.312;2022-07-23T15:29:29;14.40;;;3.95;;
20036;SDS011;10179;42.640;23.312;2022-07-23T15:31:55;9.65;;;4.30;;
20036;SDS011;10179;42.640;23.312;2022-07-23T15:34:21;9.07;;;4.55;;